createdAt,value
2019-04-28T00:01:57.598Z,76.44
2019-04-28T00:07:01.751Z,76.59
2019-04-28T00:12:02.536Z,76.74
2019-04-28T00:17:04.985Z,76.76
2019-04-28T00:22:11.036Z,76.71
2019-04-28T00:27:12.433Z,76.66
2019-04-28T00:32:14.890Z,76.87
2019-04-28T00:37:17.363Z,76.82
2019-04-28T00:42:19.831Z,76.69
2019-04-28T00:47:22.294Z,76.46
2019-04-28T00:52:24.755Z,76.91
2019-04-28T00:57:27.222Z,76.65
2019-04-28T01:02:31.178Z,76.80
2019-04-28T01:07:33.077Z,77.19
2019-04-28T01:12:34.615Z,77.04
2019-04-28T01:17:55.309Z,76.82
2019-04-28T01:22:57.770Z,76.82
2019-04-28T01:28:00.295Z,76.78
2019-04-28T01:33:21.073Z,77.12
2019-04-28T01:38:23.542Z,77.52
2019-04-28T01:43:25.988Z,77.12
2019-04-28T01:48:29.845Z,77.11
2019-04-28T01:53:31.049Z,77.12
2019-04-28T01:58:33.372Z,76.77
2019-04-28T02:03:35.901Z,76.68
2019-04-28T02:08:39.853Z,76.49
2019-04-28T02:13:40.829Z,76.56
2019-04-28T02:18:43.296Z,76.46
2019-04-28T02:23:45.750Z,76.28
2019-04-28T02:28:48.201Z,76.12
2019-04-28T02:33:53.802Z,76.44
2019-04-28T02:38:53.123Z,76.39
2019-04-28T02:43:55.652Z,76.58
2019-04-28T02:49:00.797Z,76.62
2019-04-28T02:54:00.733Z,76.55
2019-04-28T02:59:03.040Z,76.52
2019-04-28T03:04:05.490Z,76.91
2019-04-28T03:09:10.406Z,77.00
2019-04-28T03:14:11.083Z,77.18
2019-04-28T03:19:12.829Z,77.08
2019-04-28T03:24:15.274Z,76.58
2019-04-28T03:29:23.939Z,76.88
2019-04-28T03:34:26.385Z,76.79
2019-04-28T03:39:30.291Z,76.87
2019-04-28T03:44:33.817Z,77.21
2019-04-28T03:49:36.253Z,77.26
2019-04-28T03:54:41.015Z,77.20
2019-04-28T03:59:43.484Z,77.20
2019-04-28T04:04:43.616Z,77.16
2019-04-28T04:09:51.510Z,77.18
2019-04-28T04:14:51.436Z,77.37
2019-04-28T04:19:53.916Z,76.83
2019-04-28T04:24:56.373Z,76.87
2019-04-28T04:30:01.531Z,76.95
2019-04-28T04:35:01.265Z,76.55
2019-04-28T04:40:03.722Z,76.42
2019-04-28T04:45:06.178Z,76.40
2019-04-28T04:50:12.887Z,76.20
2019-04-28T04:55:11.282Z,75.23
2019-04-28T05:00:13.534Z,74.12
2019-04-28T05:05:15.990Z,73.47
2019-04-28T05:10:20.267Z,74.70
2019-04-28T05:15:20.910Z,73.94
2019-04-28T05:20:23.374Z,73.86
2019-04-28T05:25:30.911Z,73.61
2019-04-28T05:30:29.672Z,73.38
2019-04-28T05:35:30.791Z,73.30
2019-04-28T05:40:33.256Z,73.42
2019-04-28T05:45:35.779Z,72.85
2019-04-28T05:50:39.957Z,71.95
2019-04-28T05:55:41.911Z,70.80
2019-04-28T06:00:46.149Z,70.08
2019-04-28T06:05:49.693Z,68.75
2019-04-28T06:10:51.110Z,67.59
2019-04-28T06:15:53.663Z,65.46
2019-04-28T06:20:56.131Z,66.96
2019-04-28T06:25:58.610Z,67.07
2019-04-28T06:31:01.064Z,61.28
2019-04-28T06:36:03.519Z,62.53
2019-04-28T06:41:05.976Z,62.71
2019-04-28T06:46:08.438Z,62.90
2019-04-28T06:51:10.893Z,64.38
2019-04-28T06:56:16.054Z,64.43
2019-04-28T07:01:18.518Z,64.95
2019-04-28T07:06:20.978Z,64.42
2019-04-28T07:11:23.449Z,61.02
2019-04-28T07:16:25.916Z,58.60
2019-04-28T07:21:31.292Z,59.95
2019-04-28T07:26:33.751Z,60.58
2019-04-28T07:31:36.229Z,60.55
2019-04-28T07:36:38.692Z,60.93
2019-04-28T07:41:41.161Z,61.11
2019-04-28T07:46:43.632Z,61.66
2019-04-28T07:51:48.968Z,59.52
2019-04-28T07:56:51.439Z,59.40
2019-04-28T08:01:53.911Z,57.48
2019-04-28T08:06:56.360Z,55.85
2019-04-28T08:11:58.809Z,59.04
2019-04-28T08:17:01.290Z,60.29
2019-04-28T08:22:03.778Z,55.54
2019-04-28T08:27:06.244Z,54.72
2019-04-28T08:32:08.712Z,47.00
2019-04-28T08:37:11.160Z,49.33
2019-04-28T08:42:13.645Z,40.50
2019-04-28T08:47:16.107Z,34.77
2019-04-28T08:52:18.583Z,38.27
2019-04-28T08:57:21.050Z,41.55
2019-04-28T09:02:23.509Z,19.82
2019-04-28T09:07:26.117Z,12.28
2019-04-28T09:12:28.580Z,10.41
2019-04-28T09:17:31.052Z,10.17
2019-04-28T09:22:33.522Z,15.46
2019-04-28T09:27:36.014Z,22.42
2019-04-28T09:32:38.458Z,29.48
2019-04-28T09:37:40.926Z,27.69
2019-04-28T09:42:43.391Z,37.19
2019-04-28T09:47:45.867Z,40.23
2019-04-28T09:52:48.819Z,41.12
2019-04-28T09:57:50.822Z,34.22
2019-04-28T10:02:53.325Z,15.65
2019-04-28T10:07:55.899Z,26.30
2019-04-28T10:12:58.390Z,36.59
2019-04-28T10:18:00.856Z,13.00
2019-04-28T10:23:03.312Z,12.85
2019-04-28T10:28:05.777Z,19.30
2019-04-28T10:33:08.270Z,22.83
2019-04-28T10:38:10.717Z,25.48
2019-04-28T10:43:13.201Z,23.03
2019-04-28T10:48:15.653Z,21.13
2019-04-28T10:53:18.124Z,20.85
2019-04-28T10:58:20.594Z,18.55
2019-04-28T11:03:23.055Z,12.15
2019-04-28T11:08:28.469Z,16.40
2019-04-28T11:13:30.942Z,11.53
2019-04-28T11:18:33.412Z,11.32
2019-04-28T11:23:35.888Z,13.06
2019-04-28T11:28:38.359Z,10.79
2019-04-28T11:33:43.756Z,8.89
2019-04-28T11:38:48.422Z,7.41
2019-04-28T11:43:50.882Z,7.09
2019-04-28T11:48:53.352Z,6.74
2019-04-28T11:53:55.812Z,7.58
2019-04-28T11:58:58.271Z,6.72
2019-04-28T12:04:00.725Z,6.64
2019-04-28T12:09:15.320Z,17.05
2019-04-28T12:14:20.650Z,16.93
2019-04-28T12:19:25.813Z,10.35
2019-04-28T12:24:28.306Z,22.75
2019-04-28T12:29:30.766Z,29.80
2019-04-28T12:34:33.222Z,33.23
2019-04-28T12:39:35.704Z,35.40
2019-04-28T12:44:38.196Z,35.22
2019-04-28T12:49:43.687Z,35.26
2019-04-28T12:54:46.148Z,33.63
2019-04-28T12:59:48.623Z,34.77
2019-04-28T13:04:51.078Z,35.83
2019-04-28T13:09:53.939Z,34.90
2019-04-28T13:14:56.780Z,33.63
2019-04-28T13:19:59.256Z,30.98
2019-04-28T13:25:01.766Z,31.29
2019-04-28T13:30:07.091Z,31.41
2019-04-28T13:35:09.569Z,33.00
2019-04-28T13:40:18.246Z,33.54
2019-04-28T13:45:20.701Z,35.25
2019-04-28T13:50:29.125Z,34.58
2019-04-28T13:55:46.772Z,34.54
2019-04-28T14:01:07.104Z,36.94
2019-04-28T14:06:28.013Z,37.75
2019-04-28T14:11:21.097Z,37.87
2019-04-28T14:16:23.565Z,39.00
2019-04-28T14:21:26.004Z,39.29
2019-04-28T14:26:28.468Z,39.64
2019-04-28T14:31:30.969Z,41.01
2019-04-28T14:36:41.879Z,41.30
2019-04-28T14:41:36.084Z,41.08
2019-04-28T14:46:38.536Z,41.92
2019-04-28T14:51:41.002Z,41.56
2019-04-28T14:56:43.483Z,42.33
2019-04-28T15:01:54.511Z,43.13
2019-04-28T15:06:59.658Z,43.53
2019-04-28T15:12:02.248Z,42.71
2019-04-28T15:17:04.761Z,42.45
2019-04-28T15:22:07.208Z,42.98
2019-04-28T15:27:09.668Z,42.98
2019-04-28T15:32:12.140Z,43.54
2019-04-28T15:37:15.614Z,43.37
2019-04-28T15:42:17.093Z,44.07
2019-04-28T15:47:19.620Z,44.52
2019-04-28T15:52:22.113Z,43.48
2019-04-28T15:57:24.572Z,43.71
2019-04-28T16:02:27.085Z,41.56
2019-04-28T16:07:29.540Z,41.43
2019-04-28T16:12:32.016Z,42.53
2019-04-28T16:17:34.495Z,42.30
2019-04-28T16:22:36.940Z,43.68
2019-04-28T16:27:39.415Z,45.11
2019-04-28T16:32:41.860Z,46.46
2019-04-28T16:37:44.348Z,48.02
2019-04-28T16:42:47.209Z,48.92
2019-04-28T16:47:49.427Z,48.65
2019-04-28T16:52:51.885Z,48.28
2019-04-28T16:58:09.481Z,48.29
2019-04-28T17:03:11.962Z,48.70
2019-04-28T17:08:14.440Z,47.30
2019-04-28T17:13:16.995Z,47.23
2019-04-28T17:18:19.391Z,47.97
2019-04-28T17:23:21.848Z,46.84
2019-04-28T17:28:24.327Z,47.69
2019-04-28T17:33:26.806Z,47.06
2019-04-28T17:38:29.581Z,48.19
2019-04-28T17:43:32.059Z,48.86
2019-04-28T17:48:37.377Z,49.51
2019-04-28T17:53:39.861Z,49.74
2019-04-28T17:58:42.339Z,50.88
2019-04-28T18:04:03.350Z,51.47
2019-04-28T18:09:05.830Z,52.11
2019-04-28T18:14:08.329Z,52.48
2019-04-28T18:19:13.734Z,53.21
2019-04-28T18:24:16.205Z,53.77
2019-04-28T18:29:18.679Z,55.12
2019-04-28T18:34:21.162Z,55.62
2019-04-28T18:39:32.934Z,56.33
2019-04-28T18:44:35.411Z,56.90
2019-04-28T18:49:37.879Z,57.63
2019-04-28T18:54:40.344Z,58.64
2019-04-28T18:59:42.801Z,59.19
2019-04-28T19:04:45.309Z,59.47
2019-04-28T19:09:47.817Z,60.32
2019-04-28T19:14:53.304Z,60.62
2019-04-28T19:19:55.780Z,60.96
2019-04-28T19:24:58.266Z,61.91
2019-04-28T19:30:00.733Z,62.27
2019-04-28T19:35:03.228Z,62.60
2019-04-28T19:40:05.677Z,62.71
2019-04-28T19:45:08.165Z,63.31
2019-04-28T19:50:10.608Z,63.79
2019-04-28T19:55:16.056Z,63.92
2019-04-28T20:00:18.535Z,64.11
2019-04-28T20:05:21.003Z,64.65
2019-04-28T20:10:23.468Z,65.21
2019-04-28T20:15:25.966Z,65.10
2019-04-28T20:20:28.414Z,65.13
2019-04-28T20:25:30.880Z,65.20
2019-04-28T20:30:33.357Z,65.29
2019-04-28T20:35:35.865Z,65.14
2019-04-28T20:40:38.340Z,65.37
2019-04-28T20:45:40.822Z,65.53
2019-04-28T20:50:43.293Z,65.40
2019-04-28T20:55:45.741Z,65.67
2019-04-28T21:00:48.217Z,65.76
2019-04-28T21:05:50.674Z,66.22
2019-04-28T21:10:53.147Z,65.99
2019-04-28T21:15:55.595Z,66.59
2019-04-28T21:20:58.076Z,66.39
2019-04-28T21:26:00.548Z,66.67
2019-04-28T21:31:03.003Z,66.62
2019-04-28T21:36:05.484Z,66.90
2019-04-28T21:41:07.930Z,67.51
2019-04-28T21:46:16.346Z,67.91
2019-04-28T21:51:18.805Z,68.11
2019-04-28T21:56:21.278Z,68.26
2019-04-28T22:01:23.759Z,68.23
2019-04-28T22:06:26.237Z,68.16
2019-04-28T22:11:28.677Z,68.21
2019-04-28T22:16:31.130Z,68.49
2019-04-28T22:21:33.598Z,68.81
2019-04-28T22:26:42.010Z,68.87
2019-04-28T22:31:44.470Z,68.79
2019-04-28T22:36:46.932Z,69.06
2019-04-28T22:41:49.387Z,69.07
2019-04-28T22:46:51.876Z,69.60
2019-04-28T22:51:54.344Z,69.75
2019-04-28T22:56:56.808Z,69.17
2019-04-28T23:01:59.276Z,69.42
2019-04-28T23:07:01.717Z,69.33
2019-04-28T23:12:04.206Z,69.48
2019-04-28T23:17:06.661Z,69.44
2019-04-28T23:22:09.126Z,69.31
2019-04-28T23:27:11.591Z,69.99
2019-04-28T23:32:14.057Z,69.67
2019-04-28T23:37:16.520Z,69.62
2019-04-28T23:42:18.979Z,69.78
2019-04-28T23:47:21.444Z,69.60
2019-04-28T23:52:26.596Z,69.66
2019-04-28T23:57:29.079Z,69.83
